createdAt,value
2019-02-22T00:00:43.894Z,32.50
2019-02-22T00:01:43.902Z,29.80
2019-02-22T00:02:43.873Z,29.50
2019-02-22T00:03:43.864Z,28.80
2019-02-22T00:04:43.870Z,30.70
2019-02-22T00:05:43.837Z,29.40
2019-02-22T00:06:43.826Z,29.60
2019-02-22T00:07:43.825Z,29.90
2019-02-22T00:08:43.812Z,30.50
2019-02-22T00:09:49.416Z,30.40
2019-02-22T00:10:44.784Z,29.00
2019-02-22T00:11:43.770Z,29.50
2019-02-22T00:12:43.818Z,29.90
2019-02-22T00:13:43.747Z,29.40
2019-02-22T00:14:43.740Z,31.10
2019-02-22T00:15:43.732Z,28.80
2019-02-22T00:16:43.718Z,32.40
2019-02-22T00:17:43.739Z,31.20
2019-02-22T00:18:43.693Z,32.90
2019-02-22T00:19:43.687Z,30.10
2019-02-22T00:20:43.669Z,30.10
2019-02-22T00:21:43.686Z,29.10
2019-02-22T00:22:43.716Z,29.20
2019-02-22T00:23:43.640Z,31.50
2019-02-22T00:24:43.625Z,29.00
2019-02-22T00:25:43.622Z,29.20
2019-02-22T00:26:43.624Z,30.40
2019-02-22T00:27:43.607Z,28.40
2019-02-22T00:28:43.580Z,30.30
2019-02-22T00:29:43.569Z,30.10
2019-02-22T00:30:43.561Z,29.70
2019-02-22T00:31:43.552Z,29.00
2019-02-22T00:32:43.554Z,28.50
2019-02-22T00:33:43.529Z,28.80
2019-02-22T00:34:43.541Z,29.00
2019-02-22T00:35:43.534Z,30.60
2019-02-22T00:36:43.499Z,28.20
2019-02-22T00:37:43.494Z,29.70
2019-02-22T00:41:00.917Z,24.60
2019-02-22T00:42:00.900Z,27.50
2019-02-22T00:43:00.943Z,28.30
2019-02-22T00:44:00.882Z,29.60
2019-02-22T00:45:00.868Z,27.90
2019-02-22T00:46:00.856Z,29.50
2019-02-22T00:47:00.844Z,27.80
2019-02-22T00:48:00.833Z,28.30
2019-02-22T00:49:00.849Z,27.20
2019-02-22T00:50:00.813Z,26.90
2019-02-22T00:51:00.798Z,29.40
2019-02-22T00:52:00.809Z,25.80
2019-02-22T00:53:00.787Z,25.40
2019-02-22T00:54:00.780Z,26.50
2019-02-22T00:55:00.774Z,27.00
2019-02-22T00:56:00.750Z,26.00
2019-02-22T00:57:00.733Z,26.30
2019-02-22T00:58:00.725Z,27.40
2019-02-22T00:59:00.723Z,25.90
2019-02-22T01:00:00.698Z,27.30
2019-02-22T01:01:00.706Z,30.20
2019-02-22T01:02:00.677Z,26.60
2019-02-22T01:03:00.670Z,27.80
2019-02-22T01:04:00.667Z,28.20
2019-02-22T01:05:00.641Z,26.90
2019-02-22T01:06:00.630Z,29.50
2019-02-22T01:07:00.619Z,26.90
2019-02-22T01:08:00.614Z,27.10
2019-02-22T01:09:00.634Z,25.90
2019-02-22T01:10:00.589Z,28.30
2019-02-22T01:11:00.574Z,26.50
2019-02-22T01:12:00.563Z,27.00
2019-02-22T01:13:00.554Z,28.10
2019-02-22T01:14:00.555Z,28.00
2019-02-22T01:15:00.534Z,29.00
2019-02-22T01:16:00.519Z,27.10
2019-02-22T01:17:00.516Z,26.70
2019-02-22T01:18:00.494Z,27.60
2019-02-22T01:19:00.502Z,27.20
2019-02-22T01:20:00.716Z,28.00
2019-02-22T01:21:00.460Z,28.10
2019-02-22T01:22:00.473Z,28.20
2019-02-22T01:23:00.446Z,26.40
2019-02-22T01:24:00.435Z,27.50
2019-02-22T01:25:00.483Z,27.70
2019-02-22T01:26:00.406Z,28.20
2019-02-22T01:27:00.399Z,27.10
2019-02-22T01:28:00.390Z,26.00
2019-02-22T01:29:00.375Z,28.50
2019-02-22T01:30:00.380Z,28.20
2019-02-22T01:31:00.358Z,27.20
2019-02-22T01:32:00.374Z,26.10
2019-02-22T01:33:00.333Z,28.70
2019-02-22T01:34:00.319Z,28.50
2019-02-22T01:35:00.353Z,27.00
2019-02-22T01:36:00.297Z,28.00
2019-02-22T01:37:00.280Z,28.20
2019-02-22T01:38:00.274Z,27.10
2019-02-22T01:39:00.259Z,27.40
2019-02-22T01:40:00.279Z,26.80
2019-02-22T01:41:00.238Z,27.00
2019-02-22T01:42:00.225Z,27.40
2019-02-22T01:43:00.220Z,27.70
2019-02-22T01:44:00.203Z,28.20
2019-02-22T01:45:00.323Z,28.10
2019-02-22T01:46:00.184Z,27.60
2019-02-22T01:47:00.173Z,27.10
2019-02-22T01:48:00.272Z,27.50
2019-02-22T01:49:00.154Z,29.00
2019-02-22T01:50:00.334Z,27.40
2019-02-22T01:51:00.131Z,27.40
2019-02-22T01:52:00.112Z,27.50
2019-02-22T01:53:00.113Z,27.90
2019-02-22T01:54:00.098Z,31.90
2019-02-22T01:55:00.165Z,27.10
2019-02-22T01:56:00.083Z,28.70
2019-02-22T01:57:00.066Z,27.10
2019-02-22T01:58:00.050Z,27.50
2019-02-22T01:59:00.034Z,29.00
2019-02-22T02:00:00.031Z,27.10
2019-02-22T02:01:00.025Z,28.30
2019-02-22T02:02:00.019Z,28.50
2019-02-22T02:02:59.987Z,28.30
2019-02-22T02:03:59.978Z,26.90
2019-02-22T02:04:59.969Z,28.80
2019-02-22T02:05:59.968Z,28.60
2019-02-22T02:06:59.965Z,28.00
2019-02-22T02:07:59.959Z,28.30
2019-02-22T02:08:59.919Z,30.30
2019-02-22T02:09:59.908Z,27.50
2019-02-22T02:10:59.912Z,29.90
2019-02-22T02:12:01.874Z,28.00
2019-02-22T02:12:59.877Z,29.30
2019-02-22T02:13:59.884Z,28.50
2019-02-22T02:14:59.852Z,28.70
2019-02-22T02:15:59.860Z,30.30
2019-02-22T02:16:59.840Z,30.00
2019-02-22T02:17:59.820Z,31.90
2019-02-22T02:18:59.807Z,29.20
2019-02-22T02:19:59.795Z,29.40
2019-02-22T02:20:59.782Z,29.50
2019-02-22T02:21:59.791Z,29.30
2019-02-22T02:22:59.763Z,31.00
2019-02-22T02:23:59.755Z,31.40
2019-02-22T02:24:59.750Z,30.20
2019-02-22T02:25:59.727Z,29.70
2019-02-22T02:26:59.728Z,30.20
2019-02-22T02:27:59.713Z,32.50
2019-02-22T02:28:59.695Z,32.10
2019-02-22T02:29:59.682Z,33.90
2019-02-22T02:30:59.692Z,34.00
2019-02-22T02:31:59.747Z,34.10
2019-02-22T02:32:59.647Z,36.90
2019-02-22T02:33:59.643Z,38.60
2019-02-22T02:34:59.625Z,39.40
2019-02-22T02:35:59.620Z,38.20
2019-02-22T02:36:59.616Z,42.50
2019-02-22T02:37:59.592Z,42.60
2019-02-22T02:38:59.582Z,43.20
2019-02-22T02:39:59.578Z,44.80
2019-02-22T02:41:09.864Z,45.40
2019-02-22T02:42:00.563Z,41.90
2019-02-22T02:42:59.536Z,41.80
2019-02-22T02:43:59.528Z,41.00
2019-02-22T02:44:59.511Z,41.90
2019-02-22T02:45:59.527Z,41.70
2019-02-22T02:46:59.501Z,40.00
2019-02-22T02:47:59.482Z,39.80
2019-02-22T02:48:59.480Z,41.60
2019-02-22T02:49:59.472Z,43.10
2019-02-22T02:50:59.446Z,43.40
2019-02-22T02:51:59.470Z,41.90
2019-02-22T02:52:59.432Z,41.30
2019-02-22T02:53:59.413Z,42.80
2019-02-22T02:54:59.402Z,40.80
2019-02-22T02:55:59.392Z,42.60
2019-02-22T02:56:59.385Z,40.30
2019-02-22T02:57:59.378Z,41.50
2019-02-22T02:58:59.395Z,41.40
2019-02-22T02:59:59.352Z,41.70
2019-02-22T03:00:59.333Z,39.50
2019-02-22T03:01:59.321Z,38.50
2019-02-22T03:02:59.324Z,37.70
2019-02-22T03:03:59.320Z,38.90
2019-02-22T03:04:59.304Z,40.00
2019-02-22T03:05:59.285Z,41.90
2019-02-22T03:06:59.269Z,37.60
2019-02-22T03:07:59.265Z,39.30
2019-02-22T03:08:59.246Z,40.60
2019-02-22T03:09:59.230Z,39.90
2019-02-22T03:10:59.228Z,37.60
2019-02-22T03:11:59.211Z,39.60
2019-02-22T03:12:59.208Z,41.80
2019-02-22T03:13:59.188Z,42.80
2019-02-22T03:14:59.181Z,40.20
2019-02-22T03:15:59.164Z,39.40
2019-02-22T03:16:59.153Z,41.30
2019-02-22T03:17:59.152Z,43.20
2019-02-22T03:18:59.129Z,40.10
2019-02-22T03:19:59.135Z,39.50
2019-02-22T03:20:59.121Z,40.70
2019-02-22T03:21:59.097Z,40.30
2019-02-22T03:22:59.095Z,40.80
2019-02-22T03:23:59.083Z,41.30
2019-02-22T03:24:59.070Z,42.50
2019-02-22T03:25:59.080Z,43.40
2019-02-22T03:26:59.039Z,40.80
2019-02-22T03:27:59.041Z,44.40
2019-02-22T03:28:59.019Z,42.20
2019-02-22T03:29:59.021Z,42.50
2019-02-22T03:30:59.009Z,42.70
2019-02-22T03:31:58.984Z,41.60
2019-02-22T03:32:58.972Z,43.90
2019-02-22T03:33:58.973Z,43.30
2019-02-22T03:34:58.958Z,42.90
2019-02-22T03:35:58.937Z,43.70
2019-02-22T03:36:58.943Z,42.80
2019-02-22T03:37:58.924Z,44.70
2019-02-22T03:38:58.916Z,44.30
2019-02-22T03:39:58.919Z,43.40
2019-02-22T03:40:58.882Z,42.70
2019-02-22T03:41:58.872Z,45.80
2019-02-22T03:42:58.856Z,44.30
2019-02-22T03:43:58.861Z,44.30
2019-02-22T03:44:58.834Z,43.00
2019-02-22T03:45:58.834Z,46.10
2019-02-22T03:46:58.817Z,46.00
2019-02-22T03:47:58.803Z,45.30
2019-02-22T03:48:58.805Z,43.90
2019-02-22T03:49:58.779Z,44.30
2019-02-22T03:50:58.768Z,43.00
2019-02-22T03:51:58.769Z,42.90
2019-02-22T03:52:58.747Z,43.70
2019-02-22T03:53:58.750Z,44.10
2019-02-22T03:54:58.721Z,43.10
2019-02-22T03:55:58.724Z,42.00
2019-02-22T03:56:58.700Z,44.10
2019-02-22T03:57:58.686Z,46.60
2019-02-22T03:58:58.689Z,43.70
2019-02-22T03:59:58.674Z,44.40
2019-02-22T04:00:58.666Z,41.80
2019-02-22T04:01:58.658Z,42.90
2019-02-22T04:02:58.636Z,42.10
2019-02-22T04:03:58.717Z,43.70
2019-02-22T04:04:58.612Z,44.50
2019-02-22T04:05:58.599Z,42.60
2019-02-22T04:06:58.585Z,43.80
2019-02-22T04:07:58.587Z,45.80
2019-02-22T04:08:58.565Z,44.80
2019-02-22T04:09:58.570Z,42.10
2019-02-22T04:10:58.556Z,42.30
2019-02-22T04:11:58.530Z,42.50
2019-02-22T04:12:58.519Z,43.10
2019-02-22T04:13:58.513Z,42.20
2019-02-22T04:14:58.577Z,41.00
2019-02-22T04:15:58.490Z,42.20
2019-02-22T04:16:58.479Z,42.60
2019-02-22T04:17:58.462Z,42.10
2019-02-22T04:18:58.449Z,40.90
2019-02-22T04:19:58.451Z,42.30
2019-02-22T04:20:58.432Z,43.60
2019-02-22T04:21:58.415Z,42.00
2019-02-22T04:22:58.414Z,42.10
2019-02-22T04:23:58.400Z,41.70
2019-02-22T04:24:58.397Z,42.90
2019-02-22T04:25:58.377Z,41.00
2019-02-22T04:26:58.358Z,43.80
2019-02-22T04:27:58.352Z,44.20
2019-02-22T04:28:58.335Z,44.40
2019-02-22T04:29:58.328Z,43.60
2019-02-22T04:30:58.326Z,45.00
2019-02-22T04:31:58.303Z,45.20
2019-02-22T04:32:58.293Z,46.30
2019-02-22T04:33:58.296Z,46.00
2019-02-22T04:34:58.268Z,45.90
2019-02-22T04:35:58.297Z,46.70
2019-02-22T04:36:58.260Z,47.20
2019-02-22T04:37:58.234Z,44.50
2019-02-22T04:38:58.246Z,47.30
2019-02-22T04:39:58.222Z,45.00
2019-02-22T04:40:58.226Z,45.30
2019-02-22T04:41:58.523Z,46.80
2019-02-22T04:42:58.181Z,48.30
2019-02-22T04:43:58.171Z,49.80
2019-02-22T04:44:58.167Z,50.60
2019-02-22T04:45:58.176Z,49.90
2019-02-22T04:46:58.133Z,51.70
2019-02-22T04:47:58.121Z,50.50
2019-02-22T04:48:58.139Z,53.50
2019-02-22T04:49:58.099Z,54.80
2019-02-22T04:50:58.115Z,53.20
2019-02-22T04:51:58.089Z,53.50
2019-02-22T04:52:58.068Z,55.90
2019-02-22T04:53:58.071Z,57.30
2019-02-22T04:54:58.074Z,58.00
2019-02-22T04:55:58.132Z,57.40
2019-02-22T04:56:58.024Z,54.30
2019-02-22T04:57:58.030Z,56.10
2019-02-22T04:58:58.009Z,61.20
2019-02-22T04:59:57.998Z,57.50
2019-02-22T05:00:58.003Z,57.70
2019-02-22T05:01:57.964Z,58.00
2019-02-22T05:02:57.976Z,61.40
2019-02-22T05:03:57.945Z,55.70
2019-02-22T05:04:57.932Z,57.10
2019-02-22T05:05:57.919Z,57.60
2019-02-22T05:06:57.928Z,57.20
2019-02-22T05:07:57.897Z,55.00
2019-02-22T05:08:57.885Z,53.80
2019-02-22T05:09:57.880Z,54.40
2019-02-22T05:10:57.862Z,58.30
2019-02-22T05:12:10.081Z,55.80
2019-02-22T05:12:58.840Z,56.30
2019-02-22T05:13:57.830Z,54.50
2019-02-22T05:14:57.817Z,56.40
2019-02-22T05:15:57.809Z,53.70
2019-02-22T05:16:57.813Z,54.80
2019-02-22T05:17:57.784Z,55.60
2019-02-22T05:18:57.806Z,53.60
2019-02-22T05:19:57.783Z,53.40
2019-02-22T05:20:57.749Z,54.20
2019-02-22T05:21:57.750Z,50.40
2019-02-22T05:23:03.762Z,52.80
2019-02-22T05:23:58.713Z,50.60
2019-02-22T05:24:57.708Z,50.70
2019-02-22T05:25:57.698Z,53.60
2019-02-22T05:26:57.734Z,52.20
2019-02-22T05:27:57.670Z,51.80
2019-02-22T05:28:57.662Z,49.10
2019-02-22T05:29:57.648Z,52.20
2019-02-22T05:30:57.643Z,53.50
2019-02-22T05:31:57.663Z,50.00
2019-02-22T05:32:57.637Z,53.10
2019-02-22T05:33:57.604Z,51.30
2019-02-22T05:34:57.594Z,52.10
2019-02-22T05:35:57.588Z,51.80
2019-02-22T05:36:57.569Z,51.50
2019-02-22T05:37:57.579Z,49.10
2019-02-22T05:38:57.549Z,49.20
2019-02-22T05:39:57.536Z,52.80
2019-02-22T05:40:57.529Z,51.70
2019-02-22T05:41:57.515Z,50.40
2019-02-22T05:42:57.515Z,53.10
2019-02-22T05:43:57.499Z,49.20
2019-02-22T05:44:57.481Z,51.20
2019-02-22T05:45:57.467Z,52.40
2019-02-22T05:47:00.443Z,53.40
2019-02-22T05:47:57.458Z,52.00
2019-02-22T05:48:57.439Z,53.60
2019-02-22T05:49:57.432Z,53.40
2019-02-22T05:50:57.412Z,53.70
2019-02-22T05:51:57.411Z,53.30
2019-02-22T05:52:57.414Z,55.90
2019-02-22T05:53:57.382Z,53.70
2019-02-22T05:54:57.375Z,53.30
2019-02-22T05:55:57.355Z,54.00
2019-02-22T05:56:57.371Z,54.90
2019-02-22T05:57:57.334Z,51.80
2019-02-22T05:58:57.335Z,52.80
2019-02-22T05:59:57.319Z,56.00
2019-02-22T06:00:57.297Z,55.50
2019-02-22T06:01:57.293Z,55.20
2019-02-22T06:02:57.281Z,52.70
2019-02-22T06:03:57.274Z,51.90
2019-02-22T06:04:57.259Z,53.90
2019-02-22T06:05:57.295Z,54.00
2019-02-22T06:06:57.259Z,54.00
2019-02-22T06:07:57.221Z,56.20
2019-02-22T06:08:57.219Z,52.90
2019-02-22T06:09:57.198Z,57.90
2019-02-22T06:10:57.186Z,55.80
2019-02-22T06:11:57.195Z,56.40
2019-02-22T06:12:57.165Z,56.60
2019-02-22T06:13:57.164Z,55.90
2019-02-22T06:14:57.141Z,59.00
2019-02-22T06:15:57.260Z,55.90
2019-02-22T06:16:57.123Z,58.60
2019-02-22T06:17:57.121Z,57.00
2019-02-22T06:18:57.113Z,59.70
2019-02-22T06:19:57.088Z,54.90
2019-02-22T06:20:57.072Z,55.80
2019-02-22T06:21:57.078Z,58.10
2019-02-22T06:22:57.055Z,56.40
2019-02-22T06:23:57.065Z,58.60
2019-02-22T06:24:57.027Z,56.60
2019-02-22T06:25:57.016Z,58.60
2019-02-22T06:26:57.003Z,55.40
2019-02-22T06:27:56.995Z,56.90
2019-02-22T06:28:56.998Z,56.50
2019-02-22T06:29:56.991Z,57.90
2019-02-22T06:30:57.086Z,57.80
2019-02-22T06:31:56.965Z,57.50
2019-02-22T06:32:56.938Z,58.80
2019-02-22T06:33:56.936Z,57.40
2019-02-22T06:34:56.926Z,59.50
2019-02-22T06:35:56.915Z,56.80
2019-02-22T06:37:01.769Z,61.20
2019-02-22T06:37:57.914Z,56.00
2019-02-22T06:38:56.873Z,59.40
2019-02-22T06:39:56.884Z,60.80
2019-02-22T06:40:56.865Z,59.70
2019-02-22T06:41:56.834Z,59.10
2019-02-22T06:42:56.829Z,58.90
2019-02-22T06:43:56.814Z,58.40
2019-02-22T06:44:56.824Z,59.30
2019-02-22T06:45:56.830Z,58.40
2019-02-22T06:46:56.794Z,60.50
2019-02-22T06:47:56.767Z,59.50
2019-02-22T06:48:56.775Z,61.70
2019-02-22T06:49:57.034Z,61.80
2019-02-22T06:50:56.737Z,62.10
2019-02-22T06:51:56.727Z,62.30
2019-02-22T06:52:56.711Z,59.60
2019-02-22T06:53:56.704Z,65.00
2019-02-22T06:54:56.688Z,65.60
2019-02-22T06:55:56.690Z,58.80
2019-02-22T06:56:56.674Z,59.30
2019-02-22T06:57:56.653Z,64.10
2019-02-22T06:58:56.643Z,59.40
2019-02-22T06:59:56.631Z,60.00
2019-02-22T07:00:56.644Z,61.20
2019-02-22T07:01:56.621Z,58.90
2019-02-22T07:02:56.616Z,60.80
2019-02-22T07:03:56.587Z,63.90
2019-02-22T07:04:56.578Z,62.70
2019-02-22T07:05:56.577Z,60.30
2019-02-22T07:06:56.559Z,62.10
2019-02-22T07:07:56.966Z,60.80
2019-02-22T07:08:56.555Z,60.40
2019-02-22T07:09:56.518Z,60.00
2019-02-22T07:10:56.535Z,59.10
2019-02-22T07:11:56.495Z,62.00
2019-02-22T07:12:57.237Z,61.30
2019-02-22T07:13:56.474Z,62.80
2019-02-22T07:14:56.469Z,61.30
2019-02-22T07:15:56.452Z,60.90
2019-02-22T07:16:56.451Z,57.90
2019-02-22T07:17:56.428Z,59.10
2019-02-22T07:18:56.419Z,58.40
2019-02-22T07:19:56.414Z,59.60
2019-02-22T07:20:56.394Z,60.30
2019-02-22T07:21:56.396Z,61.20
2019-02-22T07:22:56.372Z,57.70
2019-02-22T07:23:56.361Z,56.90
2019-02-22T07:24:56.356Z,57.60
2019-02-22T07:25:56.339Z,56.40
2019-02-22T07:26:56.339Z,58.10
2019-02-22T07:27:56.316Z,57.00
2019-02-22T07:28:56.304Z,59.10
2019-02-22T07:29:56.293Z,56.10
2019-02-22T07:30:56.291Z,57.40
2019-02-22T07:32:05.378Z,56.70
2019-02-22T07:32:57.278Z,56.50
2019-02-22T07:33:56.246Z,61.00
2019-02-22T07:34:56.240Z,55.10
2019-02-22T07:35:56.223Z,58.10
2019-02-22T07:36:56.240Z,55.50
2019-02-22T07:37:56.201Z,55.50
2019-02-22T07:38:56.190Z,55.40
2019-02-22T07:39:56.183Z,56.70
2019-02-22T07:40:56.168Z,57.00
2019-02-22T07:41:56.175Z,55.00
2019-02-22T07:43:07.522Z,54.40
2019-02-22T07:43:57.133Z,58.60
2019-02-22T07:44:56.129Z,56.20
2019-02-22T07:45:56.119Z,56.20
2019-02-22T07:46:56.117Z,53.80
2019-02-22T07:47:56.090Z,53.30
2019-02-22T07:48:56.080Z,54.40
2019-02-22T07:49:56.068Z,55.10
2019-02-22T07:50:58.117Z,54.90
2019-02-22T07:51:56.048Z,53.00
2019-02-22T07:52:56.055Z,55.70
2019-02-22T07:53:56.026Z,53.40
2019-02-22T07:54:56.011Z,53.10
2019-02-22T07:55:55.997Z,54.10
2019-02-22T07:56:55.989Z,55.70
2019-02-22T07:57:55.993Z,53.30
2019-02-22T07:58:55.964Z,54.50
2019-02-22T07:59:55.970Z,54.10
2019-02-22T08:00:55.943Z,55.30
2019-02-22T08:01:55.932Z,53.60
2019-02-22T08:02:55.939Z,53.30
2019-02-22T08:03:55.910Z,53.70
2019-02-22T08:04:55.913Z,55.20
2019-02-22T08:05:55.885Z,54.00
2019-02-22T08:06:55.877Z,54.40
2019-02-22T08:07:55.871Z,54.80
2019-02-22T08:08:55.947Z,54.70
2019-02-22T08:09:55.843Z,56.20
2019-02-22T08:10:55.835Z,54.90
2019-02-22T08:11:55.855Z,55.50
2019-02-22T08:12:55.807Z,56.20
2019-02-22T08:13:55.814Z,53.80
2019-02-22T08:14:55.784Z,53.80
2019-02-22T08:15:55.806Z,53.90
2019-02-22T08:16:55.763Z,54.50
2019-02-22T08:17:55.755Z,54.40
2019-02-22T08:19:01.686Z,50.60
2019-02-22T08:19:56.725Z,52.20
2019-02-22T08:20:55.718Z,50.30
2019-02-22T08:21:55.710Z,50.40
2019-02-22T08:22:55.693Z,50.20
2019-02-22T08:23:55.702Z,51.60
2019-02-22T08:24:55.671Z,50.50
2019-02-22T08:25:55.669Z,49.40
2019-02-22T08:26:55.649Z,48.40
2019-02-22T08:27:55.637Z,50.40
2019-02-22T08:28:55.685Z,47.40
2019-02-22T08:29:55.633Z,47.80
2019-02-22T08:30:55.613Z,50.00
2019-02-22T08:31:55.594Z,48.80
2019-02-22T08:32:55.601Z,47.20
2019-02-22T08:33:57.208Z,49.30
2019-02-22T08:34:55.558Z,47.60
2019-02-22T08:35:55.585Z,50.40
2019-02-22T08:36:55.634Z,51.60
2019-02-22T08:37:55.528Z,51.10
2019-02-22T08:38:55.705Z,48.60
2019-02-22T08:39:58.873Z,48.90
2019-02-22T08:40:55.495Z,51.40
2019-02-22T08:41:55.478Z,50.90
2019-02-22T08:42:55.478Z,51.80
2019-02-22T08:43:55.471Z,54.40
2019-02-22T08:44:55.474Z,55.10
2019-02-22T08:45:55.516Z,53.00
2019-02-22T08:46:55.425Z,52.70
2019-02-22T08:47:55.413Z,51.80
2019-02-22T08:48:55.448Z,49.30
2019-02-22T08:49:55.389Z,50.40
2019-02-22T08:50:55.378Z,50.40
2019-02-22T08:51:55.366Z,48.80
2019-02-22T08:52:55.360Z,49.40
2019-02-22T08:53:55.711Z,49.20
2019-02-22T08:54:55.740Z,47.30
2019-02-22T08:55:55.704Z,48.50
2019-02-22T08:56:55.307Z,46.10
2019-02-22T08:57:55.301Z,45.30
2019-02-22T08:58:55.286Z,47.50
2019-02-22T08:59:55.309Z,46.50
2019-02-22T09:00:55.265Z,47.80
2019-02-22T09:01:55.253Z,45.40
2019-02-22T09:02:55.256Z,45.10
2019-02-22T09:03:55.237Z,44.80
2019-02-22T09:04:55.242Z,44.70
2019-02-22T09:05:55.206Z,44.10
2019-02-22T09:06:55.197Z,43.50
2019-02-22T09:07:55.186Z,41.70
2019-02-22T09:08:55.177Z,42.00
2019-02-22T09:09:55.183Z,44.80
2019-02-22T09:11:00.585Z,44.50
2019-02-22T09:11:57.781Z,42.20
2019-02-22T09:12:55.129Z,40.80
2019-02-22T09:13:55.119Z,39.90
2019-02-22T09:14:55.108Z,40.20
2019-02-22T09:15:55.112Z,41.30
2019-02-22T09:16:55.084Z,39.10
2019-02-22T09:17:55.427Z,40.80
2019-02-22T09:18:55.065Z,41.60
2019-02-22T09:19:55.049Z,39.20
2019-02-22T09:20:55.049Z,39.40
2019-02-22T09:21:55.027Z,41.10
2019-02-22T09:22:55.031Z,39.70
2019-02-22T09:23:55.003Z,40.00
2019-02-22T09:24:54.994Z,39.80
2019-02-22T09:25:54.993Z,44.90
2019-02-22T09:26:54.978Z,38.10
2019-02-22T09:27:54.989Z,38.90
2019-02-22T09:28:55.645Z,38.90
2019-02-22T09:29:58.880Z,41.60
2019-02-22T09:30:54.937Z,41.40
2019-02-22T09:31:54.919Z,39.50
2019-02-22T09:32:54.921Z,41.30
2019-02-22T09:33:54.895Z,43.20
2019-02-22T09:34:54.890Z,39.10
2019-02-22T09:35:54.881Z,40.80
2019-02-22T09:36:54.870Z,39.60
2019-02-22T09:37:54.857Z,39.60
2019-02-22T09:38:54.838Z,35.80
2019-02-22T09:39:54.825Z,36.20
2019-02-22T09:40:54.872Z,35.10
2019-02-22T09:41:54.802Z,36.30
2019-02-22T09:42:54.802Z,35.30
2019-02-22T09:43:55.831Z,35.30
2019-02-22T09:44:54.769Z,35.20
2019-02-22T09:45:54.775Z,35.10
2019-02-22T09:46:54.745Z,35.10
2019-02-22T09:47:54.885Z,34.30
2019-02-22T09:48:54.723Z,33.40
2019-02-22T09:49:54.719Z,34.30
2019-02-22T09:50:54.704Z,32.70
2019-02-22T09:51:54.701Z,36.40
2019-02-22T09:52:54.682Z,32.50
2019-02-22T09:53:54.676Z,33.50
2019-02-22T09:54:54.659Z,33.70
2019-02-22T09:55:54.646Z,32.80
2019-02-22T09:56:54.650Z,32.90
2019-02-22T09:57:54.625Z,32.70
2019-02-22T09:58:54.612Z,32.50
2019-02-22T09:59:54.600Z,34.10
2019-02-22T10:00:54.594Z,33.00
2019-02-22T10:01:54.593Z,32.30
2019-02-22T10:02:54.567Z,35.50
2019-02-22T10:03:54.557Z,34.20
2019-02-22T10:04:55.673Z,33.50
2019-02-22T10:05:54.546Z,33.30
2019-02-22T10:06:54.552Z,34.40
2019-02-22T10:07:54.509Z,37.00
2019-02-22T10:08:54.501Z,31.60
2019-02-22T10:09:54.488Z,32.20
2019-02-22T10:10:54.475Z,32.60
2019-02-22T10:11:54.470Z,32.00
2019-02-22T10:12:54.468Z,30.90
2019-02-22T10:14:06.019Z,29.60
2019-02-22T10:14:55.429Z,28.00
2019-02-22T10:15:54.418Z,27.70
2019-02-22T10:16:54.410Z,26.80
2019-02-22T10:17:54.412Z,27.30
2019-02-22T10:18:54.386Z,26.00
2019-02-22T10:19:54.373Z,25.50
2019-02-22T10:20:54.361Z,25.40
2019-02-22T10:21:54.352Z,25.80
2019-02-22T10:22:54.352Z,25.70
2019-02-22T10:23:54.331Z,26.50
2019-02-22T10:24:54.335Z,25.30
2019-02-22T10:25:54.304Z,25.70
2019-02-22T10:26:54.293Z,25.30
2019-02-22T10:27:54.294Z,27.70
2019-02-22T10:28:54.288Z,25.90
2019-02-22T10:29:54.264Z,26.00
2019-02-22T10:30:54.258Z,26.40
2019-02-22T10:31:54.243Z,23.90
2019-02-22T10:32:54.243Z,24.80
2019-02-22T10:33:54.220Z,24.40
2019-02-22T10:34:54.210Z,24.60
2019-02-22T10:35:54.221Z,24.20
2019-02-22T10:36:54.186Z,23.10
2019-02-22T10:37:54.181Z,22.40
2019-02-22T10:38:54.157Z,18.50
2019-02-22T10:39:54.175Z,17.60
2019-02-22T10:40:54.137Z,17.60
2019-02-22T10:41:54.125Z,17.20
2019-02-22T10:42:54.127Z,17.70
2019-02-22T10:43:54.115Z,16.80
2019-02-22T10:44:54.092Z,17.50
2019-02-22T10:45:54.085Z,16.40
2019-02-22T10:46:54.078Z,17.10
2019-02-22T10:47:54.059Z,17.60
2019-02-22T10:48:54.058Z,18.70
2019-02-22T10:49:54.034Z,19.00
2019-02-22T10:50:54.025Z,19.80
2019-02-22T10:51:54.016Z,19.10
2019-02-22T10:53:01.792Z,19.60
2019-02-22T10:53:55.003Z,19.10
2019-02-22T10:54:53.979Z,18.10
2019-02-22T10:55:53.966Z,17.20
2019-02-22T10:56:53.957Z,16.70
2019-02-22T10:57:53.970Z,17.80
2019-02-22T10:58:53.958Z,17.40
2019-02-22T10:59:53.920Z,17.60
2019-02-22T11:00:53.909Z,18.40
2019-02-22T11:01:53.900Z,19.30
2019-02-22T11:02:53.899Z,19.40
2019-02-22T11:03:53.890Z,19.90
2019-02-22T11:04:53.867Z,20.40
2019-02-22T11:05:53.898Z,20.20
2019-02-22T11:06:53.842Z,20.00
2019-02-22T11:07:53.831Z,20.00
2019-02-22T11:08:53.840Z,20.20
2019-02-22T11:09:53.827Z,22.30
2019-02-22T11:10:53.835Z,21.80
2019-02-22T11:11:53.787Z,22.40
2019-02-22T11:12:53.780Z,24.70
2019-02-22T11:13:53.771Z,25.40
2019-02-22T11:14:53.762Z,28.80
2019-02-22T11:15:53.750Z,21.60
2019-02-22T11:16:53.727Z,21.20
2019-02-22T11:17:53.721Z,21.60
2019-02-22T11:18:53.714Z,19.60
2019-02-22T11:19:53.708Z,19.90
2019-02-22T11:20:53.682Z,19.70
2019-02-22T11:21:53.670Z,19.40
2019-02-22T11:22:53.658Z,18.50
2019-02-22T11:23:53.666Z,17.70
2019-02-22T11:24:53.650Z,16.20
2019-02-22T11:25:53.638Z,16.20
2019-02-22T11:26:53.618Z,16.50
2019-02-22T11:27:53.600Z,15.70
2019-02-22T11:28:53.592Z,15.10
2019-02-22T11:29:53.595Z,17.10
2019-02-22T11:30:53.567Z,15.20
2019-02-22T11:31:53.586Z,15.10
2019-02-22T11:32:53.544Z,17.10
2019-02-22T11:33:53.532Z,15.70
2019-02-22T11:34:53.526Z,15.30
2019-02-22T11:35:53.508Z,17.00
2019-02-22T11:36:53.500Z,16.30
2019-02-22T11:37:53.552Z,15.10
2019-02-22T11:38:53.477Z,15.10
2019-02-22T11:39:53.467Z,14.20
2019-02-22T11:40:53.454Z,13.10
2019-02-22T11:41:53.441Z,11.70
2019-02-22T11:42:53.447Z,12.00
2019-02-22T11:43:53.423Z,12.40
2019-02-22T11:44:53.439Z,12.70
2019-02-22T11:45:53.395Z,11.40
2019-02-22T11:46:53.389Z,11.80
2019-02-22T11:47:53.466Z,11.50
2019-02-22T11:48:53.357Z,12.50
2019-02-22T11:49:53.349Z,11.70
2019-02-22T11:50:53.352Z,12.00
2019-02-22T11:51:55.836Z,12.00
2019-02-22T11:52:53.314Z,12.70
2019-02-22T11:53:53.307Z,12.40
2019-02-22T11:54:53.288Z,12.80
2019-02-22T11:55:53.296Z,12.90
2019-02-22T11:56:53.271Z,13.70
2019-02-22T11:57:53.253Z,12.70
2019-02-22T11:58:53.244Z,11.90
2019-02-22T11:59:53.231Z,13.60
2019-02-22T12:00:53.237Z,13.40
2019-02-22T12:01:53.206Z,12.20
2019-02-22T12:02:53.214Z,13.00
2019-02-22T12:03:53.190Z,11.60
2019-02-22T12:04:53.187Z,12.40
2019-02-22T12:05:53.175Z,12.10
2019-02-22T12:06:53.149Z,14.00
2019-02-22T12:07:53.145Z,13.50
2019-02-22T12:08:53.200Z,13.00
2019-02-22T12:09:53.128Z,13.90
2019-02-22T12:10:53.121Z,13.40
2019-02-22T12:11:53.091Z,13.90
2019-02-22T12:12:53.078Z,13.40
2019-02-22T12:13:53.071Z,13.60
2019-02-22T12:14:53.067Z,11.90
2019-02-22T12:15:53.066Z,12.10
2019-02-22T12:16:53.033Z,10.20
2019-02-22T12:17:53.023Z,11.00
2019-02-22T12:18:53.009Z,9.80
2019-02-22T12:19:52.999Z,9.60
2019-02-22T12:20:53.011Z,8.80
2019-02-22T12:21:52.978Z,10.10
2019-02-22T12:22:52.971Z,9.60
2019-02-22T12:23:53.121Z,7.10
2019-02-22T12:24:52.941Z,7.20
2019-02-22T12:25:52.933Z,6.00
2019-02-22T12:26:52.935Z,6.30
2019-02-22T12:27:52.911Z,6.60
2019-02-22T12:28:52.897Z,5.10
2019-02-22T12:29:52.900Z,6.80
2019-02-22T12:30:52.874Z,5.80
2019-02-22T12:31:52.889Z,5.10
2019-02-22T12:32:52.849Z,5.60
2019-02-22T12:33:52.843Z,6.40
2019-02-22T12:34:52.829Z,5.60
2019-02-22T12:35:52.818Z,5.10
2019-02-22T12:36:52.818Z,5.10
2019-02-22T12:37:52.802Z,5.30
2019-02-22T12:38:52.785Z,4.90
2019-02-22T12:39:52.770Z,5.40
2019-02-22T12:40:52.769Z,4.80
2019-02-22T12:41:53.684Z,6.40
2019-02-22T12:42:52.740Z,5.60
2019-02-22T12:43:52.725Z,6.10
2019-02-22T12:45:02.462Z,6.60
2019-02-22T12:45:53.701Z,7.00
2019-02-22T12:46:52.720Z,5.30
2019-02-22T12:47:52.688Z,5.10
2019-02-22T12:48:52.686Z,6.00
2019-02-22T12:49:52.662Z,4.80
2019-02-22T12:50:52.648Z,4.80
2019-02-22T12:51:52.655Z,5.60
2019-02-22T12:52:52.623Z,4.70
2019-02-22T12:53:52.620Z,5.10
2019-02-22T12:54:52.603Z,7.10
2019-02-22T12:55:52.596Z,6.70